Time;durP1;ratioP1;P1;durP2;ratioP2;P2;SDS_P1;SDS_P2;PMS_P1;PMS_P2;Temp;Humidity;BMP_temperature;BMP_pressure;BME280_temperature;BME280_humidity;BME280_pressure;Samples;Min_cycle;Max_cycle;Signal;HPM_P1;HPM_P2
2021/07/13 00:01:29;;;;;;;;;7.25;6.75;;;;;-146.80;100.00;64830.25;5057397;28;45386;-66
2021/07/13 00:03:54;;;;;;;;;8.00;8.00;;;;;-146.80;100.00;64830.25;5057232;28;45539;-61
2021/07/13 00:06:21;;;;;;;;;7.50;5.75;;;;;-146.80;100.00;64830.25;5057680;28;45515;-67
2021/07/13 00:08:51;;;;;;;;;6.25;6.25;;;;;-146.80;100.00;64830.25;5056690;28;48336;-67
2021/07/13 00:11:20;;;;;;;;;7.00;6.25;;;;;-146.80;100.00;64830.25;5058153;28;45235;-62
2021/07/13 00:13:46;;;;;;;;;8.25;7.00;;;;;-146.80;100.00;64830.25;5062875;28;48118;-73
2021/07/13 00:16:12;;;;;;;;;8.25;6.75;;;;;-146.80;100.00;64830.25;5077855;27;45573;-73
2021/07/13 00:18:38;;;;;;;;;8.00;8.00;;;;;-146.80;100.00;64830.25;5077861;27;45405;-73
2021/07/13 00:21:07;;;;;;;;;12.25;8.75;;;;;-146.80;100.00;64830.25;5076123;28;45276;-72
2021/07/13 00:23:33;;;;;;;;;7.75;7.75;;;;;-146.80;100.00;64830.25;5064352;28;45255;-71
2021/07/13 00:25:59;;;;;;;;;8.00;6.50;;;;;-146.80;100.00;64830.25;5082223;27;45286;-73
2021/07/13 00:28:24;;;;;;;;;10.00;10.00;;;;;-146.80;100.00;64830.25;5058139;28;45196;-73
2021/07/13 00:30:49;;;;;;;;;12.00;9.75;;;;;-146.80;100.00;64830.25;5057636;28;45605;-70
2021/07/13 00:33:15;;;;;;;;;13.00;10.00;;;;;-146.80;100.00;64830.25;5052386;28;45370;-69
2021/07/13 00:35:40;;;;;;;;;10.00;10.00;;;;;-146.80;100.00;64830.25;5056185;28;45467;-69
2021/07/13 00:38:06;;;;;;;;;12.75;11.75;;;;;-146.80;100.00;64830.25;5057063;28;45510;-71
2021/07/13 00:40:31;;;;;;;;;14.75;13.75;;;;;-146.80;100.00;64830.25;5055716;28;45509;-64
2021/07/13 00:42:57;;;;;;;;;9.75;9.75;;;;;-146.80;100.00;64830.25;5057275;28;45462;-72
2021/07/13 00:45:23;;;;;;;;;13.25;13.25;;;;;-146.80;100.00;64830.25;5057543;28;45402;-64
2021/07/13 00:47:51;;;;;;;;;13.50;11.00;;;;;-146.80;100.00;64830.25;5055627;28;46085;-64
2021/07/13 00:50:19;;;;;;;;;13.75;12.25;;;;;-146.80;100.00;64830.25;5057611;28;45284;-64
2021/07/13 00:52:45;;;;;;;;;14.25;12.75;;;;;-146.80;100.00;64830.25;5057540;28;45365;-63
2021/07/13 00:55:11;;;;;;;;;20.00;14.25;;;;;-146.80;100.00;64830.25;5056851;28;45382;-63
2021/07/13 00:57:37;;;;;;;;;14.00;13.00;;;;;-146.80;100.00;64830.25;5057231;28;45452;-63
2021/07/13 01:00:13;;;;;;;;;17.00;14.25;;;;;-146.80;100.00;64830.25;5055993;28;45429;-63
2021/07/13 01:02:39;;;;;;;;;16.00;13.75;;;;;-146.80;100.00;64830.25;5057211;28;45400;-63
2021/07/13 01:05:12;;;;;;;;;14.25;13.50;;;;;-146.80;100.00;64830.25;5057752;28;45514;-63
2021/07/13 01:07:57;;;;;;;;;18.25;17.25;;;;;-146.80;100.00;64830.25;5072585;28;48235;-63
2021/07/13 01:10:25;;;;;;;;;19.75;18.75;;;;;-146.80;100.00;64830.25;5057599;28;45352;-64
2021/07/13 01:13:08;;;;;;;;;20.75;17.50;;;;;-146.80;100.00;64830.25;5057502;28;45181;-63
2021/07/13 01:15:41;;;;;;;;;18.50;16.25;;;;;-146.80;100.00;64830.25;5057419;28;45485;-63
2021/07/13 01:18:09;;;;;;;;;19.50;15.50;;;;;-146.80;100.00;64830.25;5056897;28;46471;-65
2021/07/13 01:20:55;;;;;;;;;20.50;17.00;;;;;-146.80;100.00;64830.25;5057126;28;45338;-64
2021/07/13 01:23:36;;;;;;;;;25.00;22.25;;;;;-146.80;100.00;64830.25;5057021;28;45251;-64
2021/07/13 01:26:30;;;;;;;;;20.50;20.00;;;;;-146.80;100.00;64830.25;5057096;28;45424;-63
2021/07/13 01:29:00;;;;;;;;;21.25;20.00;;;;;-146.80;100.00;64830.25;5056986;28;45288;-62
2021/07/13 01:31:27;;;;;;;;;43.75;35.50;;;;;-146.80;100.00;64830.25;5057095;28;45509;-63
2021/07/13 01:34:01;;;;;;;;;48.50;37.50;;;;;-146.80;100.00;64830.25;5056954;28;45434;-63
2021/07/13 01:36:29;;;;;;;;;59.25;47.25;;;;;-146.80;100.00;64830.25;5057115;28;45314;-63
2021/07/13 01:38:58;;;;;;;;;74.00;57.67;;;;;-146.80;100.00;64830.25;5056942;28;45541;-63
2021/07/13 01:41:26;;;;;;;;;69.25;52.75;;;;;-146.80;100.00;64830.25;5057116;28;45421;-62
2021/07/13 01:43:53;;;;;;;;;64.00;47.75;;;;;-146.80;100.00;64830.25;5056795;28;45266;-64
2021/07/13 01:46:20;;;;;;;;;26.75;26.75;;;;;-146.80;100.00;64830.25;5055900;28;45306;-64
2021/07/13 01:48:48;;;;;;;;;25.50;23.50;;;;;-146.80;100.00;64830.25;5056612;28;45754;-63
2021/07/13 01:51:16;;;;;;;;;24.00;22.25;;;;;-146.80;100.00;64830.25;5056676;28;45429;-63
2021/07/13 01:53:43;;;;;;;;;23.25;19.50;;;;;-146.80;100.00;64830.25;5056705;28;45308;-63
2021/07/13 01:56:10;;;;;;;;;21.00;17.75;;;;;-146.80;100.00;64830.25;5056895;28;45369;-65
2021/07/13 01:58:37;;;;;;;;;20.25;19.00;;;;;-146.80;100.00;64830.25;5056275;28;45445;-63
2021/07/13 02:01:12;;;;;;;;;21.00;18.75;;;;;-146.80;100.00;64830.25;5056398;28;45350;-63
2021/07/13 02:03:41;;;;;;;;;20.50;17.00;;;;;-146.80;100.00;64830.25;5056604;28;45387;-64
2021/07/13 02:06:08;;;;;;;;;17.25;16.00;;;;;-146.80;100.00;64830.25;5055602;28;45162;-63
2021/07/13 02:08:38;;;;;;;;;21.00;18.25;;;;;-146.80;100.00;64830.25;5055949;28;47448;-63
2021/07/13 02:11:07;;;;;;;;;20.50;17.50;;;;;-146.80;100.00;64830.25;5054810;28;45561;-63
2021/07/13 02:13:33;;;;;;;;;18.00;16.50;;;;;-146.80;100.00;64830.25;5056338;28;45279;-64
2021/07/13 02:15:59;;;;;;;;;18.50;15.25;;;;;-146.80;100.00;64830.25;5056749;28;45493;-63
2021/07/13 02:18:25;;;;;;;;;19.75;17.50;;;;;-146.80;100.00;64830.25;5056017;28;46950;-63
2021/07/13 02:20:51;;;;;;;;;18.00;18.00;;;;;-146.80;100.00;64830.25;5056030;28;45259;-62
2021/07/13 02:23:16;;;;;;;;;20.75;17.25;;;;;-146.80;100.00;64830.25;5056250;28;45424;-63
2021/07/13 02:25:45;;;;;;;;;15.75;13.50;;;;;-146.80;100.00;64830.25;5056328;28;45328;-63
2021/07/13 02:28:43;;;;;;;;;16.00;16.00;;;;;-146.80;100.00;64830.25;5055820;28;46143;-63
2021/07/13 02:31:15;;;;;;;;;16.00;14.75;;;;;-146.80;100.00;64830.25;5051667;28;45403;-63
2021/07/13 02:34:07;;;;;;;;;17.50;15.50;;;;;-146.80;100.00;64830.25;5055919;28;45293;-64
2021/07/13 02:36:36;;;;;;;;;14.50;12.75;;;;;-146.80;100.00;64830.25;5056023;28;45398;-62
2021/07/13 02:39:05;;;;;;;;;15.25;14.00;;;;;-146.80;100.00;64830.25;5054571;28;48174;-62
2021/07/13 02:41:32;;;;;;;;;15.00;12.25;;;;;-146.80;100.00;64830.25;5056275;28;45397;-63
2021/07/13 02:43:58;;;;;;;;;17.50;15.75;;;;;-146.80;100.00;64830.25;5056301;28;45459;-63
2021/07/13 02:46:27;;;;;;;;;18.50;14.25;;;;;-146.80;100.00;64830.25;5055942;28;45562;-63
2021/07/13 02:48:53;;;;;;;;;14.75;14.75;;;;;-146.80;100.00;64830.25;5055307;28;45306;-64
2021/07/13 02:51:20;;;;;;;;;11.00;10.75;;;;;-146.80;100.00;64830.25;5055762;28;45537;-63
2021/07/13 02:53:47;;;;;;;;;16.50;13.50;;;;;-146.80;100.00;64830.25;5055937;28;45484;-62
2021/07/13 02:56:15;;;;;;;;;14.00;13.00;;;;;-146.80;100.00;64830.25;5054543;28;45501;-64
2021/07/13 02:58:41;;;;;;;;;12.75;12.25;;;;;-146.80;100.00;64830.25;5055501;28;45353;-64
2021/07/13 03:01:08;;;;;;;;;17.00;11.75;;;;;-146.80;100.00;64830.25;5054203;28;45282;-64
2021/07/13 03:03:39;;;;;;;;;15.75;15.25;;;;;-146.80;100.00;64830.25;5055586;28;45353;-61
2021/07/13 03:06:05;;;;;;;;;14.50;13.00;;;;;-146.80;100.00;64830.25;5055750;28;45278;-62
2021/07/13 03:08:33;;;;;;;;;16.75;14.25;;;;;-146.80;100.00;64830.25;5055818;28;46222;-62
2021/07/13 03:11:00;;;;;;;;;12.50;11.00;;;;;-146.80;100.00;64830.25;5055872;28;45311;-62
2021/07/13 03:13:26;;;;;;;;;14.50;13.25;;;;;-146.80;100.00;64830.25;5055428;28;45337;-62
2021/07/13 03:15:52;;;;;;;;;17.00;13.50;;;;;-146.80;100.00;64830.25;5055585;28;45288;-63
2021/07/13 03:18:18;;;;;;;;;14.50;13.25;;;;;-146.80;100.00;64830.25;5056756;28;46346;-63
2021/07/13 03:20:47;;;;;;;;;19.25;16.25;;;;;-146.80;100.00;64830.25;5057565;28;45576;-63
2021/07/13 03:23:15;;;;;;;;;14.00;13.00;;;;;-146.80;100.00;64830.25;5058938;28;45439;-63
2021/07/13 03:25:41;;;;;;;;;15.00;13.00;;;;;-146.80;100.00;64830.25;5059129;28;45565;-63
2021/07/13 03:28:10;;;;;;;;;12.50;12.50;;;;;-146.80;100.00;64830.25;5058867;28;45529;-63
2021/07/13 03:30:35;;;;;;;;;14.00;10.75;;;;;-146.80;100.00;64830.25;5058988;28;45375;-63
2021/07/13 03:33:01;;;;;;;;;15.50;14.25;;;;;-146.80;100.00;64830.25;5059443;28;45390;-65
2021/07/13 03:35:27;;;;;;;;;13.75;13.75;;;;;-146.80;100.00;64830.25;5057785;28;45654;-64
2021/07/13 03:37:53;;;;;;;;;15.75;12.00;;;;;-146.80;100.00;64830.25;5058807;28;47017;-63
2021/07/13 03:40:21;;;;;;;;;15.00;10.75;;;;;-146.80;100.00;64830.25;5057608;28;45958;-63
2021/07/13 03:42:49;;;;;;;;;16.75;13.25;;;;;-146.80;100.00;64830.25;5057450;28;45360;-63
2021/07/13 03:45:18;;;;;;;;;13.50;12.50;;;;;-146.80;100.00;64830.25;5074766;27;45290;-63
2021/07/13 03:47:53;;;;;;;;;16.00;13.75;;;;;-146.80;100.00;64830.25;5058423;28;45561;-63
2021/07/13 03:50:22;;;;;;;;;12.50;12.00;;;;;-146.80;100.00;64830.25;5058883;28;45390;-63
2021/07/13 03:52:48;;;;;;;;;11.50;10.75;;;;;-146.80;100.00;64830.25;5058580;28;45398;-63
2021/07/13 03:55:14;;;;;;;;;16.00;14.75;;;;;-146.80;100.00;64830.25;5058690;28;45347;-62
2021/07/13 03:57:40;;;;;;;;;17.50;15.00;;;;;-146.80;100.00;64830.25;5056979;28;47102;-63
2021/07/13 04:00:20;;;;;;;;;15.25;14.75;;;;;-146.80;100.00;64830.25;5058511;28;45299;-63
2021/07/13 04:02:46;;;;;;;;;17.50;15.75;;;;;-146.80;100.00;64830.25;5073909;28;45300;-62
2021/07/13 04:05:12;;;;;;;;;17.00;16.00;;;;;-146.80;100.00;64830.25;5058427;28;45494;-63
2021/07/13 04:07:38;;;;;;;;;20.00;16.00;;;;;-146.80;100.00;64830.25;5058003;28;45971;-62
2021/07/13 04:10:12;;;;;;;;;15.75;15.75;;;;;-146.80;100.00;64830.25;5058424;28;45415;-62
2021/07/13 04:12:38;;;;;;;;;15.75;14.50;;;;;-146.80;100.00;64830.25;5058278;28;45345;-63
2021/07/13 04:15:05;;;;;;;;;15.75;14.75;;;;;-146.80;100.00;64830.25;5058536;28;45513;-63
2021/07/13 04:17:31;;;;;;;;;15.50;14.75;;;;;-146.80;100.00;64830.25;5058161;28;46053;-62
2021/07/13 04:19:56;;;;;;;;;16.00;15.25;;;;;-146.80;100.00;64830.25;5057937;28;45170;-64
2021/07/13 04:22:22;;;;;;;;;15.25;15.25;;;;;-146.80;100.00;64830.25;5058216;28;45276;-63
2021/07/13 04:24:47;;;;;;;;;16.25;15.75;;;;;-146.80;100.00;64830.25;5057106;28;45388;-63
2021/07/13 04:27:12;;;;;;;;;17.75;15.50;;;;;-146.80;100.00;64830.25;5056719;28;46113;-63
2021/07/13 04:29:38;;;;;;;;;15.50;13.00;;;;;-146.80;100.00;64830.25;5056613;28;45223;-62
2021/07/13 04:32:04;;;;;;;;;18.25;16.25;;;;;-146.80;100.00;64830.25;5058325;28;45349;-63
2021/07/13 04:34:31;;;;;;;;;17.75;16.25;;;;;-146.80;100.00;64830.25;5058117;28;45378;-64
2021/07/13 04:36:56;;;;;;;;;20.75;16.00;;;;;-146.80;100.00;64830.25;5056320;28;47715;-64
2021/07/13 04:39:21;;;;;;;;;17.50;17.50;;;;;-146.80;100.00;64830.25;5057569;28;45350;-62
2021/07/13 04:41:47;;;;;;;;;17.75;15.50;;;;;-146.80;100.00;64830.25;5057757;28;45341;-62
2021/07/13 04:44:13;;;;;;;;;21.25;17.50;;;;;-146.80;100.00;64830.25;5056814;28;45539;-63
2021/07/13 04:46:38;;;;;;;;;20.00;17.00;;;;;-146.80;100.00;64830.25;5057243;28;46203;-63
2021/07/13 04:49:03;;;;;;;;;19.50;19.00;;;;;-146.80;100.00;64830.25;5056196;28;45701;-63
2021/07/13 04:51:29;;;;;;;;;17.75;16.75;;;;;-146.80;100.00;64830.25;5057597;28;45296;-63
2021/07/13 04:53:54;;;;;;;;;18.50;18.50;;;;;-146.80;100.00;64830.25;5057747;28;45390;-63
2021/07/13 04:56:20;;;;;;;;;21.25;17.25;;;;;-146.80;100.00;64830.25;5057389;28;46153;-64
2021/07/13 04:58:45;;;;;;;;;20.25;16.25;;;;;-146.80;100.00;64830.25;5055288;28;45332;-63
2021/07/13 05:01:11;;;;;;;;;22.00;16.75;;;;;-146.80;100.00;64830.25;5057408;28;45360;-64
2021/07/13 05:03:36;;;;;;;;;20.00;17.50;;;;;-146.80;100.00;64830.25;5056762;28;45236;-64
2021/07/13 05:06:02;;;;;;;;;20.25;19.00;;;;;-146.80;100.00;64830.25;5057022;28;45501;-63
2021/07/13 05:08:27;;;;;;;;;20.50;19.00;;;;;-146.80;100.00;64830.25;5057220;28;45302;-64
2021/07/13 05:10:53;;;;;;;;;18.75;17.00;;;;;-146.80;100.00;64830.25;5057392;28;45362;-64
2021/07/13 05:13:19;;;;;;;;;21.25;17.50;;;;;-146.80;100.00;64830.25;5057550;28;45258;-63
2021/07/13 05:15:45;;;;;;;;;21.00;17.25;;;;;-146.80;100.00;64830.25;5055685;28;47162;-62
2021/07/13 05:18:12;;;;;;;;;23.75;18.25;;;;;-146.80;100.00;64830.25;5056853;28;45453;-64
2021/07/13 05:20:50;;;;;;;;;19.00;18.00;;;;;-146.80;100.00;64830.25;5057397;28;45492;-63
2021/07/13 05:23:16;;;;;;;;;21.25;18.75;;;;;-146.80;100.00;64830.25;5057381;28;45311;-63
2021/07/13 05:25:42;;;;;;;;;21.25;18.25;;;;;-146.80;100.00;64830.25;5055316;28;45448;-63
2021/07/13 05:28:12;;;;;;;;;18.25;15.50;;;;;-146.80;100.00;64830.25;5072786;28;45431;-63
2021/07/13 05:30:40;;;;;;;;;22.50;17.50;;;;;-146.80;100.00;64830.25;5057176;28;45382;-62
2021/07/13 05:33:06;;;;;;;;;20.75;17.75;;;;;-146.80;100.00;64830.25;5057387;28;45222;-63
2021/07/13 05:35:32;;;;;;;;;18.25;17.00;;;;;-146.80;100.00;64830.25;5055236;28;48069;-63
2021/07/13 05:37:57;;;;;;;;;22.25;17.75;;;;;-146.80;100.00;64830.25;5089160;27;45289;-64
2021/07/13 05:40:23;;;;;;;;;19.75;18.50;;;;;-146.80;100.00;64830.25;5056564;28;45263;-62
2021/07/13 05:42:48;;;;;;;;;17.25;15.00;;;;;-146.80;100.00;64830.25;5056903;28;45418;-62
2021/07/13 05:45:14;;;;;;;;;20.75;18.75;;;;;-146.80;100.00;64830.25;5056597;28;46008;-63
2021/07/13 05:47:39;;;;;;;;;25.50;20.25;;;;;-146.80;100.00;64830.25;5056429;28;45244;-62
2021/07/13 05:50:08;;;;;;;;;19.75;16.75;;;;;-146.80;100.00;64830.25;5056685;28;45428;-62
2021/07/13 05:52:34;;;;;;;;;19.50;18.25;;;;;-146.80;100.00;64830.25;5055472;28;45427;-62
2021/07/13 05:55:00;;;;;;;;;17.25;16.75;;;;;-146.80;100.00;64830.25;5056343;28;46396;-63
2021/07/13 05:57:26;;;;;;;;;21.50;18.25;;;;;-146.80;100.00;64830.25;5056316;28;45263;-63
2021/07/13 05:59:52;;;;;;;;;20.50;17.75;;;;;-146.80;100.00;64830.25;5056350;28;45219;-63
2021/07/13 06:02:17;;;;;;;;;20.50;20.00;;;;;-146.80;100.00;64830.25;5054992;28;45618;-63
2021/07/13 06:04:43;;;;;;;;;24.00;21.00;;;;;-146.80;100.00;64830.25;5056136;28;45370;-63
2021/07/13 06:07:08;;;;;;;;;23.50;18.50;;;;;-146.80;100.00;64830.25;5054843;28;45232;-64
2021/07/13 06:09:33;;;;;;;;;18.50;16.00;;;;;-146.80;100.00;64830.25;5056471;28;45382;-63
2021/07/13 06:11:59;;;;;;;;;23.50;21.00;;;;;-146.80;100.00;64830.25;5056448;28;45595;-64
2021/07/13 06:14:25;;;;;;;;;20.50;17.75;;;;;-146.80;100.00;64830.25;5056053;28;45568;-63
2021/07/13 06:16:51;;;;;;;;;22.00;18.75;;;;;-146.80;100.00;64830.25;5054596;28;45366;-64
2021/07/13 06:19:17;;;;;;;;;24.75;23.00;;;;;-146.80;100.00;64830.25;5056341;28;45345;-63
2021/07/13 06:21:43;;;;;;;;;17.75;17.00;;;;;-146.80;100.00;64830.25;5056374;28;45551;-65
2021/07/13 06:24:08;;;;;;;;;25.50;23.50;;;;;-146.80;100.00;64830.25;5054971;28;46278;-63
2021/07/13 06:26:34;;;;;;;;;21.00;17.75;;;;;-146.80;100.00;64830.25;5056087;28;45430;-62
2021/07/13 06:28:59;;;;;;;;;24.25;24.25;;;;;-146.80;100.00;64830.25;5054899;28;45428;-64
2021/07/13 06:31:25;;;;;;;;;26.25;21.50;;;;;-146.80;100.00;64830.25;5056333;28;45304;-65
2021/07/13 06:33:53;;;;;;;;;24.00;23.00;;;;;-146.80;100.00;64830.25;5055918;28;46069;-66
2021/07/13 06:36:19;;;;;;;;;26.50;22.50;;;;;-146.80;100.00;64830.25;5056146;28;45307;-67
2021/07/13 06:38:44;;;;;;;;;24.75;22.25;;;;;-146.80;100.00;64830.25;5054545;28;45251;-66
2021/07/13 06:41:09;;;;;;;;;25.00;23.00;;;;;-146.80;100.00;64830.25;5088806;27;45267;-65
2021/07/13 06:43:35;;;;;;;;;25.25;18.00;;;;;-146.80;100.00;64830.25;5056598;28;45504;-63
2021/07/13 06:46:01;;;;;;;;;20.75;19.50;;;;;-146.80;100.00;64830.25;5074770;27;45488;-65
2021/07/13 06:48:26;;;;;;;;;30.25;24.25;;;;;-146.80;100.00;64830.25;5057238;28;45390;-68
2021/07/13 06:50:53;;;;;;;;;25.00;22.25;;;;;-146.80;100.00;64830.25;5075160;28;45529;-68
2021/07/13 06:53:19;;;;;;;;;26.50;22.00;;;;;-146.80;100.00;64830.25;5073444;28;48240;-69
2021/07/13 06:55:44;;;;;;;;;28.00;20.00;;;;;-146.80;100.00;64830.25;5108674;27;45426;-70
2021/07/13 06:58:09;;;;;;;;;32.50;22.75;;;;;-146.80;100.00;64830.25;5075249;27;45456;-69
2021/07/13 07:00:35;;;;;;;;;31.50;24.50;;;;;-146.80;100.00;64830.25;5071914;28;45239;-69
2021/07/13 07:03:00;;;;;;;;;25.75;21.25;;;;;-146.80;100.00;64830.25;5075225;28;46016;-66
2021/07/13 07:05:26;;;;;;;;;23.25;20.50;;;;;-146.80;100.00;64830.25;5075025;28;45441;-67
2021/07/13 07:07:52;;;;;;;;;29.25;24.50;;;;;-146.80;100.00;64830.25;5074340;27;45956;-67
2021/07/13 07:10:19;;;;;;;;;26.75;23.75;;;;;-146.80;100.00;64830.25;5075584;27;45537;-66
2021/07/13 07:12:46;;;;;;;;;25.25;21.50;;;;;-146.80;100.00;64830.25;5074995;27;46104;-64
2021/07/13 07:15:12;;;;;;;;;26.75;22.50;;;;;-146.80;100.00;64830.25;5075078;28;45450;-67
2021/07/13 07:17:52;;;;;;;;;25.00;20.75;;;;;-146.80;100.00;64830.25;5074648;27;45429;-67
2021/07/13 07:20:23;;;;;;;;;24.50;23.25;;;;;-146.80;100.00;64830.25;5075258;28;45421;-62
2021/07/13 07:22:49;;;;;;;;;28.50;23.75;;;;;-146.80;100.00;64830.25;5097578;27;48784;-63
2021/07/13 07:25:16;;;;;;;;;27.25;21.50;;;;;-146.80;100.00;64830.25;5073095;28;45514;-60
2021/07/13 07:27:43;;;;;;;;;26.75;23.25;;;;;-146.80;100.00;64830.25;5073818;28;45484;-73
2021/07/13 07:30:10;;;;;;;;;23.75;20.75;;;;;-146.80;100.00;64830.25;5075660;28;45460;-72
2021/07/13 07:32:38;;;;;;;;;29.25;22.25;;;;;-146.80;100.00;64830.25;5075299;28;46349;-71
2021/07/13 07:35:05;;;;;;;;;26.75;22.00;;;;;-146.80;100.00;64830.25;5075739;27;45310;-72
2021/07/13 07:37:31;;;;;;;;;24.75;22.25;;;;;-146.80;100.00;64830.25;5075594;28;45373;-73
2021/07/13 07:39:56;;;;;;;;;24.50;19.25;;;;;-146.80;100.00;64830.25;5076031;27;45825;-73
2021/07/13 07:42:22;;;;;;;;;22.75;16.75;;;;;-146.80;100.00;64830.25;5075173;28;45529;-73
2021/07/13 07:44:48;;;;;;;;;30.75;26.25;;;;;-146.80;100.00;64830.25;5074793;28;45498;-70
2021/07/13 07:47:13;;;;;;;;;23.50;20.75;;;;;-146.80;100.00;64830.25;5074641;28;45647;-71
2021/07/13 07:49:39;;;;;;;;;28.00;20.50;;;;;-146.80;100.00;64830.25;5075532;27;45379;-73
2021/07/13 07:52:05;;;;;;;;;24.25;22.00;;;;;-146.80;100.00;64830.25;5075204;28;45490;-73
2021/07/13 07:54:31;;;;;;;;;25.50;22.50;;;;;-146.80;100.00;64830.25;5076087;28;45428;-72
2021/07/13 07:56:56;;;;;;;;;21.75;20.50;;;;;-146.80;100.00;64830.25;5073463;28;45510;-72
2021/07/13 07:59:22;;;;;;;;;23.75;20.00;;;;;-146.80;100.00;64830.25;5069606;27;45617;-72
2021/07/13 08:01:48;;;;;;;;;23.25;22.00;;;;;-146.80;100.00;64830.25;5053863;28;46287;-71
2021/07/13 08:04:14;;;;;;;;;26.25;22.00;;;;;-146.80;100.00;64830.25;5056353;28;45434;-72
2021/07/13 08:06:39;;;;;;;;;16.50;15.50;;;;;-146.80;100.00;64830.25;5058502;28;45484;-71
2021/07/13 08:09:07;;;;;;;;;22.25;18.50;;;;;-146.80;100.00;64830.25;5057225;28;45453;-71
2021/07/13 08:11:34;;;;;;;;;24.50;19.75;;;;;-146.80;100.00;64830.25;5058196;28;45257;-72
2021/07/13 08:14:00;;;;;;;;;18.00;15.75;;;;;-146.80;100.00;64830.25;5057235;28;45337;-71
2021/07/13 08:16:29;;;;;;;;;19.00;17.50;;;;;-146.80;100.00;64830.25;5057426;28;45459;-72
2021/07/13 08:18:54;;;;;;;;;16.75;16.75;;;;;-146.80;100.00;64830.25;5058009;28;45446;-73
2021/07/13 08:21:20;;;;;;;;;23.25;18.25;;;;;-146.80;100.00;64830.25;5057755;28;45601;-74
2021/07/13 08:23:46;;;;;;;;;18.25;16.50;;;;;-146.80;100.00;64830.25;5057385;28;45429;-71
2021/07/13 08:26:12;;;;;;;;;21.00;17.75;;;;;-146.80;100.00;64830.25;5040768;28;45398;-74
2021/07/13 08:28:37;;;;;;;;;23.75;17.25;;;;;-146.80;100.00;64830.25;5058416;28;45259;-72
2021/07/13 08:31:02;;;;;;;;;17.00;15.25;;;;;-146.80;100.00;64830.25;5056679;28;46918;-72
2021/07/13 08:33:28;;;;;;;;;20.00;16.00;;;;;-146.80;100.00;64830.25;5057634;28;45306;-70
2021/07/13 08:35:53;;;;;;;;;24.75;20.75;;;;;-146.80;100.00;64830.25;5057887;28;45707;-72
2021/07/13 08:38:19;;;;;;;;;19.50;15.75;;;;;-146.80;100.00;64830.25;5069301;28;45592;-74
2021/07/13 08:40:46;;;;;;;;;16.75;16.25;;;;;-146.80;100.00;64830.25;5077072;28;48121;-73
2021/07/13 08:43:13;;;;;;;;;20.75;17.25;;;;;-146.80;100.00;64830.25;5077613;28;45434;-73
2021/07/13 08:45:41;;;;;;;;;17.50;17.50;;;;;-146.80;100.00;64830.25;5076520;28;45396;-71
2021/07/13 08:48:11;;;;;;;;;22.25;18.25;;;;;-146.80;100.00;64830.25;5076916;28;45284;-73
2021/07/13 08:50:39;;;;;;;;;21.75;18.25;;;;;-146.80;100.00;64830.25;5077831;28;45457;-71
2021/07/13 08:53:06;;;;;;;;;21.75;18.75;;;;;-146.80;100.00;64830.25;5077643;28;45411;-72
2021/07/13 08:55:33;;;;;;;;;20.75;17.00;;;;;-146.80;100.00;64830.25;5077923;28;45229;-71
2021/07/13 08:57:59;;;;;;;;;17.25;15.25;;;;;-146.80;100.00;64830.25;5076493;28;45278;-71
2021/07/13 09:00:25;;;;;;;;;18.00;15.75;;;;;-146.80;100.00;64830.25;5077777;28;45236;-71
2021/07/13 09:03:09;;;;;;;;;17.50;14.00;;;;;-146.80;100.00;64830.25;5077617;28;45476;-70
2021/07/13 09:05:44;;;;;;;;;19.50;15.50;;;;;-146.80;100.00;64830.25;5076432;28;45237;-71
2021/07/13 09:08:14;;;;;;;;;19.00;17.00;;;;;-146.80;100.00;64830.25;5077811;28;45583;-71
2021/07/13 09:10:57;;;;;;;;;19.25;16.50;;;;;-146.80;100.00;64830.25;5077426;28;47088;-72
2021/07/13 09:13:27;;;;;;;;;19.50;16.50;;;;;-146.80;100.00;64830.25;5077416;28;45415;-72
2021/07/13 09:15:56;;;;;;;;;22.75;20.00;;;;;-146.80;100.00;64830.25;5076859;28;45314;-73
2021/07/13 09:18:38;;;;;;;;;22.75;21.75;;;;;-146.80;100.00;64830.25;5077462;28;45376;-71
2021/07/13 09:21:11;;;;;;;;;26.50;25.00;;;;;-146.80;100.00;64830.25;5077213;28;46372;-72
2021/07/13 09:24:07;;;;;;;;;15.75;15.50;;;;;-146.80;100.00;64830.25;5077455;28;45323;-73
2021/07/13 09:26:56;;;;;;;;;18.50;17.25;;;;;-146.80;100.00;64830.25;5077532;28;45206;-71
2021/07/13 09:29:42;;;;;;;;;22.25;18.00;;;;;-146.80;100.00;64830.25;5076182;28;45315;-72
2021/07/13 09:32:31;;;;;;;;;22.00;17.00;;;;;-146.80;100.00;64830.25;5077035;28;45977;-72
2021/07/13 09:35:13;;;;;;;;;22.75;19.00;;;;;-146.80;100.00;64830.25;5077520;27;45252;-72
2021/07/13 09:37:43;;;;;;;;;21.75;18.00;;;;;-146.80;100.00;64830.25;5077172;28;45417;-71
2021/07/13 09:40:14;;;;;;;;;16.50;16.25;;;;;-146.80;100.00;64830.25;5077104;28;45424;-72
2021/07/13 09:42:52;;;;;;;;;21.25;21.25;;;;;-146.80;100.00;64830.25;5076747;28;46154;-71
2021/07/13 09:45:33;;;;;;;;;23.75;21.50;;;;;-146.80;100.00;64830.25;5076990;28;45266;-70
2021/07/13 09:48:08;;;;;;;;;21.25;21.25;;;;;-146.80;100.00;64830.25;5076682;28;45449;-71
2021/07/13 09:50:45;;;;;;;;;20.25;17.25;;;;;-146.80;100.00;64830.25;5076846;28;45404;-70
2021/07/13 09:53:17;;;;;;;;;25.00;17.75;;;;;-146.80;100.00;64830.25;5076362;28;46893;-70
2021/07/13 09:55:44;;;;;;;;;25.75;17.25;;;;;-146.80;100.00;64830.25;5076620;28;45353;-73
2021/07/13 09:58:15;;;;;;;;;29.00;26.75;;;;;-146.80;100.00;64830.25;5076771;28;45511;-72
2021/07/13 10:00:44;;;;;;;;;24.75;20.25;;;;;-146.80;100.00;64830.25;5075167;28;45212;-72
2021/07/13 10:03:15;;;;;;;;;19.00;17.25;;;;;-146.80;100.00;64830.25;5076664;28;45419;-73
2021/07/13 10:05:48;;;;;;;;;18.75;16.25;;;;;-146.80;100.00;64830.25;5076733;28;45428;-73
2021/07/13 10:08:15;;;;;;;;;22.00;18.00;;;;;-146.80;100.00;64830.25;5073905;27;45430;-74
2021/07/13 10:10:42;;;;;;;;;23.00;20.00;;;;;-146.80;100.00;64830.25;5075949;28;45532;-73
2021/07/13 10:13:10;;;;;;;;;17.75;16.50;;;;;-146.80;100.00;64830.25;5074759;28;47032;-71
2021/07/13 10:15:36;;;;;;;;;17.50;16.50;;;;;-146.80;100.00;64830.25;5074680;28;45580;-72
2021/07/13 10:18:08;;;;;;;;;18.00;18.00;;;;;-146.80;100.00;64830.25;5076608;28;45433;-72
2021/07/13 10:20:35;;;;;;;;;49.75;40.50;;;;;-146.80;100.00;64830.25;5076736;28;45355;-73
2021/07/13 10:23:04;;;;;;;;;18.75;18.00;;;;;-146.80;100.00;64830.25;5076700;28;46692;-74
2021/07/13 10:25:35;;;;;;;;;21.50;20.00;;;;;-146.80;100.00;64830.25;5075775;28;45196;-73
2021/07/13 10:28:02;;;;;;;;;21.50;16.75;;;;;-146.80;100.00;64830.25;5075383;28;45365;-73
2021/07/13 10:30:28;;;;;;;;;25.75;23.75;;;;;-146.80;100.00;64830.25;5076511;28;45275;-72
2021/07/13 10:32:54;;;;;;;;;22.75;19.75;;;;;-146.80;100.00;64830.25;5092268;27;47024;-71
2021/07/13 10:35:25;;;;;;;;;26.00;21.50;;;;;-146.80;100.00;64830.25;5076813;28;45309;-73
2021/07/13 10:37:54;;;;;;;;;30.00;21.25;;;;;-146.80;100.00;64830.25;5076572;28;45354;-73
2021/07/13 10:40:25;;;;;;;;;22.00;21.25;;;;;-146.80;100.00;64830.25;5109706;27;45556;-74
2021/07/13 10:42:56;;;;;;;;;23.50;21.50;;;;;-146.80;100.00;64830.25;5092599;27;47785;-72
2021/07/13 10:45:29;;;;;;;;;32.25;25.75;;;;;-146.80;100.00;64830.25;5076928;28;45444;-73
2021/07/13 10:48:05;;;;;;;;;29.00;25.25;;;;;-146.80;100.00;64830.25;5075411;27;45523;-74
2021/07/13 10:50:30;;;;;;;;;33.75;27.00;;;;;-146.80;100.00;64830.25;5075401;28;45461;-72
2021/07/13 10:53:07;;;;;;;;;25.00;23.25;;;;;-146.80;100.00;64830.25;5076025;28;45382;-70
2021/07/13 10:55:33;;;;;;;;;24.25;22.25;;;;;-146.80;100.00;64830.25;5074655;28;45404;-71
2021/07/13 10:58:11;;;;;;;;;30.50;25.75;;;;;-146.80;100.00;64830.25;5075848;28;45418;-73
2021/07/13 11:01:07;;;;;;;;;36.50;29.25;;;;;-146.80;100.00;64830.25;5092179;27;45473;-72